sensor_id;sensor_type;location;lat;lon;timestamp;temperature;humidity
18717;DHT22;9487;50.892;6.906;2023-04-19T00:01:15;13.10;99.90
18717;DHT22;9487;50.892;6.906;2023-04-19T00:03:42;13.10;99.90
18717;DHT22;9487;50.892;6.906;2023-04-19T00:06:09;13.10;99.90
18717;DHT22;9487;50.892;6.906;2023-04-19T00:08:39;13.10;99.90
18717;DHT22;9487;50.892;6.906;2023-04-19T00:11:06;13.00;99.90
18717;DHT22;9487;50.892;6.906;2023-04-19T00:13:33;13.00;99.90
18717;DHT22;9487;50.892;6.906;2023-04-19T00:16:01;13.00;99.90
18717;DHT22;9487;50.892;6.906;2023-04-19T00:18:28;13.00;99.90
18717;DHT22;9487;50.892;6.906;2023-04-19T00:20:55;12.90;99.90
18717;DHT22;9487;50.892;6.906;2023-04-19T00:23:22;12.90;99.90
18717;DHT22;9487;50.892;6.906;2023-04-19T00:25:50;12.90;99.90
18717;DHT22;9487;50.892;6.906;2023-04-19T00:28:17;12.80;99.90
18717;DHT22;9487;50.892;6.906;2023-04-19T00:30:43;12.90;99.90
18717;DHT22;9487;50.892;6.906;2023-04-19T00:33:11;13.00;99.90
18717;DHT22;9487;50.892;6.906;2023-04-19T00:35:39;12.90;99.90
18717;DHT22;9487;50.892;6.906;2023-04-19T00:38:06;12.80;99.90
18717;DHT22;9487;50.892;6.906;2023-04-19T00:40:33;12.70;99.90
18717;DHT22;9487;50.892;6.906;2023-04-19T00:43:01;12.70;99.90
18717;DHT22;9487;50.892;6.906;2023-04-19T00:45:28;12.80;99.90
18717;DHT22;9487;50.892;6.906;2023-04-19T00:47:55;12.80;99.90
18717;DHT22;9487;50.892;6.906;2023-04-19T00:50:23;12.80;99.90
18717;DHT22;9487;50.892;6.906;2023-04-19T00:52:52;12.80;99.90
18717;DHT22;9487;50.892;6.906;2023-04-19T00:55:19;12.80;99.90
18717;DHT22;9487;50.892;6.906;2023-04-19T00:57:47;12.90;99.90
18717;DHT22;9487;50.892;6.906;2023-04-19T01:00:16;12.80;99.90
18717;DHT22;9487;50.892;6.906;2023-04-19T01:02:44;12.70;99.90
18717;DHT22;9487;50.892;6.906;2023-04-19T01:05:11;12.70;99.90
18717;DHT22;9487;50.892;6.906;2023-04-19T01:07:39;12.80;99.90
18717;DHT22;9487;50.892;6.906;2023-04-19T01:10:06;12.60;99.90
18717;DHT22;9487;50.892;6.906;2023-04-19T01:12:33;12.60;99.90
18717;DHT22;9487;50.892;6.906;2023-04-19T01:15:01;12.60;99.90
18717;DHT22;9487;50.892;6.906;2023-04-19T01:17:28;12.70;99.90
18717;DHT22;9487;50.892;6.906;2023-04-19T01:20:00;12.50;99.90
18717;DHT22;9487;50.892;6.906;2023-04-19T01:22:29;12.50;99.90
18717;DHT22;9487;50.892;6.906;2023-04-19T01:24:56;12.50;99.90
18717;DHT22;9487;50.892;6.906;2023-04-19T01:27:23;12.60;99.90
18717;DHT22;9487;50.892;6.906;2023-04-19T01:29:50;12.70;99.90
18717;DHT22;9487;50.892;6.906;2023-04-19T01:32:17;12.70;99.90
18717;DHT22;9487;50.892;6.906;2023-04-19T01:34:44;12.60;99.90
18717;DHT22;9487;50.892;6.906;2023-04-19T01:37:10;12.50;99.90
18717;DHT22;9487;50.892;6.906;2023-04-19T01:39:39;12.50;99.90
18717;DHT22;9487;50.892;6.906;2023-04-19T01:42:05;12.30;99.90
18717;DHT22;9487;50.892;6.906;2023-04-19T01:44:32;12.40;99.90
18717;DHT22;9487;50.892;6.906;2023-04-19T01:46:59;12.50;99.90
18717;DHT22;9487;50.892;6.906;2023-04-19T01:49:26;12.40;99.90
18717;DHT22;9487;50.892;6.906;2023-04-19T01:51:53;12.30;99.90
18717;DHT22;9487;50.892;6.906;2023-04-19T01:54:19;12.30;99.90
18717;DHT22;9487;50.892;6.906;2023-04-19T01:56:48;12.30;99.90
18717;DHT22;9487;50.892;6.906;2023-04-19T01:59:14;12.30;99.90
18717;DHT22;9487;50.892;6.906;2023-04-19T02:01:42;12.40;99.90
18717;DHT22;9487;50.892;6.906;2023-04-19T02:04:09;12.30;99.90
18717;DHT22;9487;50.892;6.906;2023-04-19T02:06:36;12.20;99.90
18717;DHT22;9487;50.892;6.906;2023-04-19T02:09:03;12.20;99.90
18717;DHT22;9487;50.892;6.906;2023-04-19T02:11:29;12.20;99.90
18717;DHT22;9487;50.892;6.906;2023-04-19T02:13:57;12.30;99.90
18717;DHT22;9487;50.892;6.906;2023-04-19T02:16:24;12.30;99.90
18717;DHT22;9487;50.892;6.906;2023-04-19T02:18:51;12.30;99.90
18717;DHT22;9487;50.892;6.906;2023-04-19T02:21:18;12.30;99.90
18717;DHT22;9487;50.892;6.906;2023-04-19T02:23:45;12.30;99.90
18717;DHT22;9487;50.892;6.906;2023-04-19T02:26:11;12.20;99.90
18717;DHT22;9487;50.892;6.906;2023-04-19T02:28:38;12.10;99.90
18717;DHT22;9487;50.892;6.906;2023-04-19T02:31:06;12.10;99.90
18717;DHT22;9487;50.892;6.906;2023-04-19T02:33:33;12.00;99.90
18717;DHT22;9487;50.892;6.906;2023-04-19T02:36:00;11.90;99.90
18717;DHT22;9487;50.892;6.906;2023-04-19T02:38:27;12.00;99.90
18717;DHT22;9487;50.892;6.906;2023-04-19T02:40:54;11.90;99.90
18717;DHT22;9487;50.892;6.906;2023-04-19T02:43:21;11.80;99.90
18717;DHT22;9487;50.892;6.906;2023-04-19T02:45:47;11.80;99.90
18717;DHT22;9487;50.892;6.906;2023-04-19T02:48:16;11.80;99.90
18717;DHT22;9487;50.892;6.906;2023-04-19T02:50:42;11.80;99.90
18717;DHT22;9487;50.892;6.906;2023-04-19T02:53:09;11.80;99.90
18717;DHT22;9487;50.892;6.906;2023-04-19T02:55:36;11.80;99.90
18717;DHT22;9487;50.892;6.906;2023-04-19T02:58:03;11.90;99.90
18717;DHT22;9487;50.892;6.906;2023-04-19T03:00:30;11.90;99.90
18717;DHT22;9487;50.892;6.906;2023-04-19T03:02:57;11.90;99.90
18717;DHT22;9487;50.892;6.906;2023-04-19T03:05:25;11.90;99.90
18717;DHT22;9487;50.892;6.906;2023-04-19T03:07:51;11.90;99.90
18717;DHT22;9487;50.892;6.906;2023-04-19T03:10:18;11.90;99.90
18717;DHT22;9487;50.892;6.906;2023-04-19T03:12:45;11.90;99.90
18717;DHT22;9487;50.892;6.906;2023-04-19T03:15:12;12.00;99.90
18717;DHT22;9487;50.892;6.906;2023-04-19T03:17:39;11.90;99.90
18717;DHT22;9487;50.892;6.906;2023-04-19T03:20:07;11.90;99.90
18717;DHT22;9487;50.892;6.906;2023-04-19T03:22:37;12.00;99.90
18717;DHT22;9487;50.892;6.906;2023-04-19T03:25:04;11.80;99.90
18717;DHT22;9487;50.892;6.906;2023-04-19T03:27:33;12.00;99.90
18717;DHT22;9487;50.892;6.906;2023-04-19T03:30:00;11.80;99.90
18717;DHT22;9487;50.892;6.906;2023-04-19T03:32:27;11.90;99.90
18717;DHT22;9487;50.892;6.906;2023-04-19T03:34:54;11.80;99.90
18717;DHT22;9487;50.892;6.906;2023-04-19T03:37:20;11.70;99.90
18717;DHT22;9487;50.892;6.906;2023-04-19T03:39:48;11.70;99.90
18717;DHT22;9487;50.892;6.906;2023-04-19T03:42:15;11.70;99.90
18717;DHT22;9487;50.892;6.906;2023-04-19T03:44:42;11.70;99.90
18717;DHT22;9487;50.892;6.906;2023-04-19T03:47:09;11.70;99.90
18717;DHT22;9487;50.892;6.906;2023-04-19T03:49:35;11.70;99.90
18717;DHT22;9487;50.892;6.906;2023-04-19T03:52:02;11.60;99.90
18717;DHT22;9487;50.892;6.906;2023-04-19T03:54:29;11.60;99.90
18717;DHT22;9487;50.892;6.906;2023-04-19T03:56:57;11.60;99.90
18717;DHT22;9487;50.892;6.906;2023-04-19T03:59:25;11.60;99.90
18717;DHT22;9487;50.892;6.906;2023-04-19T04:01:52;11.70;99.90
18717;DHT22;9487;50.892;6.906;2023-04-19T04:04:18;11.60;99.90
18717;DHT22;9487;50.892;6.906;2023-04-19T04:06:45;11.60;99.90
18717;DHT22;9487;50.892;6.906;2023-04-19T04:09:12;11.50;99.90
18717;DHT22;9487;50.892;6.906;2023-04-19T04:11:39;11.50;99.90
18717;DHT22;9487;50.892;6.906;2023-04-19T04:14:07;11.60;99.90
18717;DHT22;9487;50.892;6.906;2023-04-19T04:16:34;11.60;99.90
18717;DHT22;9487;50.892;6.906;2023-04-19T04:19:00;11.60;99.90
18717;DHT22;9487;50.892;6.906;2023-04-19T04:21:27;11.60;99.90
18717;DHT22;9487;50.892;6.906;2023-04-19T04:23:54;11.60;99.90
18717;DHT22;9487;50.892;6.906;2023-04-19T04:26:21;11.60;99.90
18717;DHT22;9487;50.892;6.906;2023-04-19T04:28:49;11.50;99.90
18717;DHT22;9487;50.892;6.906;2023-04-19T04:31:17;11.50;99.90
18717;DHT22;9487;50.892;6.906;2023-04-19T04:33:45;11.60;99.90
18717;DHT22;9487;50.892;6.906;2023-04-19T04:36:12;11.60;99.90
18717;DHT22;9487;50.892;6.906;2023-04-19T04:38:39;11.60;99.90
18717;DHT22;9487;50.892;6.906;2023-04-19T04:41:07;11.60;99.90
18717;DHT22;9487;50.892;6.906;2023-04-19T04:43:34;11.60;99.90
18717;DHT22;9487;50.892;6.906;2023-04-19T04:46:01;11.70;99.90
18717;DHT22;9487;50.892;6.906;2023-04-19T04:48:29;11.70;99.90
18717;DHT22;9487;50.892;6.906;2023-04-19T04:50:57;11.70;99.90
18717;DHT22;9487;50.892;6.906;2023-04-19T04:53:25;11.70;99.90
18717;DHT22;9487;50.892;6.906;2023-04-19T04:55:52;11.60;99.90
18717;DHT22;9487;50.892;6.906;2023-04-19T04:58:19;11.70;99.90
18717;DHT22;9487;50.892;6.906;2023-04-19T05:00:46;11.60;99.90
18717;DHT22;9487;50.892;6.906;2023-04-19T05:03:14;11.70;99.90
18717;DHT22;9487;50.892;6.906;2023-04-19T05:05:42;11.70;99.90
18717;DHT22;9487;50.892;6.906;2023-04-19T05:08:09;11.60;99.90
18717;DHT22;9487;50.892;6.906;2023-04-19T05:10:36;11.60;99.90
18717;DHT22;9487;50.892;6.906;2023-04-19T05:13:03;11.70;99.90
18717;DHT22;9487;50.892;6.906;2023-04-19T05:15:29;11.60;99.90
18717;DHT22;9487;50.892;6.906;2023-04-19T05:17:56;11.60;99.90
18717;DHT22;9487;50.892;6.906;2023-04-19T05:20:23;11.50;99.90
18717;DHT22;9487;50.892;6.906;2023-04-19T05:22:55;11.50;99.90
18717;DHT22;9487;50.892;6.906;2023-04-19T05:25:22;11.50;99.90
18717;DHT22;9487;50.892;6.906;2023-04-19T05:27:49;11.50;99.90
18717;DHT22;9487;50.892;6.906;2023-04-19T05:30:16;11.50;99.90
18717;DHT22;9487;50.892;6.906;2023-04-19T05:32:43;11.60;99.90
18717;DHT22;9487;50.892;6.906;2023-04-19T05:35:10;11.60;99.90
18717;DHT22;9487;50.892;6.906;2023-04-19T05:37:37;11.70;99.90
18717;DHT22;9487;50.892;6.906;2023-04-19T05:40:06;11.70;99.90
18717;DHT22;9487;50.892;6.906;2023-04-19T05:42:35;11.70;99.90
18717;DHT22;9487;50.892;6.906;2023-04-19T05:45:02;11.80;99.90
18717;DHT22;9487;50.892;6.906;2023-04-19T05:47:30;11.80;99.90
18717;DHT22;9487;50.892;6.906;2023-04-19T05:49:57;11.80;99.90
18717;DHT22;9487;50.892;6.906;2023-04-19T05:52:24;11.70;99.90
18717;DHT22;9487;50.892;6.906;2023-04-19T05:54:50;11.70;99.90
18717;DHT22;9487;50.892;6.906;2023-04-19T05:57:18;11.70;99.90
18717;DHT22;9487;50.892;6.906;2023-04-19T05:59:45;11.50;99.90
18717;DHT22;9487;50.892;6.906;2023-04-19T06:02:12;11.50;99.90
18717;DHT22;9487;50.892;6.906;2023-04-19T06:04:39;11.60;99.90
18717;DHT22;9487;50.892;6.906;2023-04-19T06:07:06;11.70;99.90
18717;DHT22;9487;50.892;6.906;2023-04-19T06:09:33;11.60;99.90
18717;DHT22;9487;50.892;6.906;2023-04-19T06:12:00;11.60;99.90
18717;DHT22;9487;50.892;6.906;2023-04-19T06:14:28;11.60;99.90
18717;DHT22;9487;50.892;6.906;2023-04-19T06:16:54;11.60;99.90
18717;DHT22;9487;50.892;6.906;2023-04-19T06:19:21;11.60;99.90
18717;DHT22;9487;50.892;6.906;2023-04-19T06:21:48;11.60;99.90
18717;DHT22;9487;50.892;6.906;2023-04-19T06:24:17;11.60;99.90
18717;DHT22;9487;50.892;6.906;2023-04-19T06:26:43;11.60;99.90
18717;DHT22;9487;50.892;6.906;2023-04-19T06:29:12;11.50;99.90
18717;DHT22;9487;50.892;6.906;2023-04-19T06:31:40;11.50;99.90
18717;DHT22;9487;50.892;6.906;2023-04-19T06:34:07;11.60;99.90
18717;DHT22;9487;50.892;6.906;2023-04-19T06:36:35;11.60;99.90
18717;DHT22;9487;50.892;6.906;2023-04-19T06:39:02;11.50;99.90
18717;DHT22;9487;50.892;6.906;2023-04-19T06:41:29;11.50;99.90
18717;DHT22;9487;50.892;6.906;2023-04-19T06:43:55;11.50;99.90
18717;DHT22;9487;50.892;6.906;2023-04-19T06:46:22;11.50;99.90
18717;DHT22;9487;50.892;6.906;2023-04-19T06:48:51;11.50;99.90
18717;DHT22;9487;50.892;6.906;2023-04-19T06:51:17;11.60;99.90
18717;DHT22;9487;50.892;6.906;2023-04-19T06:53:44;11.60;99.90
18717;DHT22;9487;50.892;6.906;2023-04-19T06:56:11;11.60;99.90
18717;DHT22;9487;50.892;6.906;2023-04-19T06:58:38;11.70;99.90
18717;DHT22;9487;50.892;6.906;2023-04-19T07:01:04;11.70;99.90
18717;DHT22;9487;50.892;6.906;2023-04-19T07:03:32;11.70;99.90
18717;DHT22;9487;50.892;6.906;2023-04-19T07:06:00;11.60;99.90
18717;DHT22;9487;50.892;6.906;2023-04-19T07:08:28;11.60;99.90
18717;DHT22;9487;50.892;6.906;2023-04-19T07:10:54;11.70;99.90
18717;DHT22;9487;50.892;6.906;2023-04-19T07:13:21;11.80;99.90
18717;DHT22;9487;50.892;6.906;2023-04-19T07:15:48;11.80;99.90
18717;DHT22;9487;50.892;6.906;2023-04-19T07:18:15;12.30;99.90
18717;DHT22;9487;50.892;6.906;2023-04-19T07:20:42;12.70;99.90
18717;DHT22;9487;50.892;6.906;2023-04-19T07:23:14;13.10;99.90
18717;DHT22;9487;50.892;6.906;2023-04-19T07:25:41;13.40;99.90
18717;DHT22;9487;50.892;6.906;2023-04-19T07:28:08;13.50;99.90
18717;DHT22;9487;50.892;6.906;2023-04-19T07:30:35;13.50;99.90
18717;DHT22;9487;50.892;6.906;2023-04-19T07:33:02;13.70;99.90
18717;DHT22;9487;50.892;6.906;2023-04-19T07:35:33;13.60;99.90
18717;DHT22;9487;50.892;6.906;2023-04-19T07:38:00;13.70;99.90
18717;DHT22;9487;50.892;6.906;2023-04-19T07:40:28;14.10;99.90
18717;DHT22;9487;50.892;6.906;2023-04-19T07:42:55;14.30;99.90
18717;DHT22;9487;50.892;6.906;2023-04-19T07:45:22;14.40;99.90
18717;DHT22;9487;50.892;6.906;2023-04-19T07:47:49;14.60;99.90
18717;DHT22;9487;50.892;6.906;2023-04-19T07:50:16;14.70;99.90
18717;DHT22;9487;50.892;6.906;2023-04-19T07:52:43;14.10;99.90
18717;DHT22;9487;50.892;6.906;2023-04-19T07:55:10;13.50;99.90
18717;DHT22;9487;50.892;6.906;2023-04-19T07:57:38;13.30;99.90
18717;DHT22;9487;50.892;6.906;2023-04-19T08:00:06;13.20;99.90
18717;DHT22;9487;50.892;6.906;2023-04-19T08:02:35;12.90;99.90
18717;DHT22;9487;50.892;6.906;2023-04-19T08:05:02;12.80;99.90
18717;DHT22;9487;50.892;6.906;2023-04-19T08:07:29;12.80;99.90
18717;DHT22;9487;50.892;6.906;2023-04-19T08:09:56;12.80;99.90
18717;DHT22;9487;50.892;6.906;2023-04-19T08:12:23;13.00;99.90
18717;DHT22;9487;50.892;6.906;2023-04-19T08:14:51;13.10;99.90
18717;DHT22;9487;50.892;6.906;2023-04-19T08:17:18;13.20;99.90
18717;DHT22;9487;50.892;6.906;2023-04-19T08:19:48;13.10;99.90
18717;DHT22;9487;50.892;6.906;2023-04-19T08:22:15;13.30;99.90
18717;DHT22;9487;50.892;6.906;2023-04-19T08:24:42;13.20;99.90
18717;DHT22;9487;50.892;6.906;2023-04-19T08:27:10;13.40;99.90
18717;DHT22;9487;50.892;6.906;2023-04-19T08:29:37;13.50;99.90
18717;DHT22;9487;50.892;6.906;2023-04-19T08:32:06;13.50;99.90
18717;DHT22;9487;50.892;6.906;2023-04-19T08:34:34;13.40;99.90
18717;DHT22;9487;50.892;6.906;2023-04-19T08:37:01;13.80;99.90
18717;DHT22;9487;50.892;6.906;2023-04-19T08:39:28;13.70;99.90
18717;DHT22;9487;50.892;6.906;2023-04-19T08:41:55;13.80;99.90
18717;DHT22;9487;50.892;6.906;2023-04-19T08:44:23;13.70;99.90
18717;DHT22;9487;50.892;6.906;2023-04-19T08:46:50;13.90;99.90
18717;DHT22;9487;50.892;6.906;2023-04-19T08:49:19;14.20;99.90
18717;DHT22;9487;50.892;6.906;2023-04-19T08:51:48;14.30;99.90
18717;DHT22;9487;50.892;6.906;2023-04-19T08:54:15;14.10;99.90
18717;DHT22;9487;50.892;6.906;2023-04-19T08:56:44;14.00;99.90
18717;DHT22;9487;50.892;6.906;2023-04-19T08:59:10;14.00;99.90
18717;DHT22;9487;50.892;6.906;2023-04-19T09:01:38;14.10;99.90
18717;DHT22;9487;50.892;6.906;2023-04-19T09:04:06;13.90;99.90
18717;DHT22;9487;50.892;6.906;2023-04-19T09:06:36;14.00;99.90
18717;DHT22;9487;50.892;6.906;2023-04-19T09:09:13;14.10;99.90
18717;DHT22;9487;50.892;6.906;2023-04-19T09:11:40;14.30;99.90
18717;DHT22;9487;50.892;6.906;2023-04-19T09:14:08;14.40;99.90
18717;DHT22;9487;50.892;6.906;2023-04-19T09:16:35;14.50;99.90
18717;DHT22;9487;50.892;6.906;2023-04-19T09:19:03;14.70;98.60
18717;DHT22;9487;50.892;6.906;2023-04-19T09:21:30;14.60;98.50
18717;DHT22;9487;50.892;6.906;2023-04-19T09:23:59;14.70;99.60
18717;DHT22;9487;50.892;6.906;2023-04-19T09:26:26;14.90;97.80
18717;DHT22;9487;50.892;6.906;2023-04-19T09:28:55;15.20;99.90
18717;DHT22;9487;50.892;6.906;2023-04-19T09:31:22;15.20;98.70
18717;DHT22;9487;50.892;6.906;2023-04-19T09:33:50;15.30;98.50
18717;DHT22;9487;50.892;6.906;2023-04-19T09:36:36;15.50;95.70
18717;DHT22;9487;50.892;6.906;2023-04-19T09:39:04;15.20;93.00
18717;DHT22;9487;50.892;6.906;2023-04-19T09:41:32;15.00;92.70
18717;DHT22;9487;50.892;6.906;2023-04-19T09:44:09;15.20;92.00
18717;DHT22;9487;50.892;6.906;2023-04-19T09:46:36;15.50;91.00
18717;DHT22;9487;50.892;6.906;2023-04-19T09:49:15;15.10;90.70
18717;DHT22;9487;50.892;6.906;2023-04-19T09:51:42;15.00;91.70
18717;DHT22;9487;50.892;6.906;2023-04-19T09:54:12;15.30;90.80
18717;DHT22;9487;50.892;6.906;2023-04-19T09:56:39;15.50;88.80
18717;DHT22;9487;50.892;6.906;2023-04-19T09:59:08;15.10;88.60
18717;DHT22;9487;50.892;6.906;2023-04-19T10:01:38;14.90;90.80
18717;DHT22;9487;50.892;6.906;2023-04-19T10:04:06;14.80;91.40
18717;DHT22;9487;50.892;6.906;2023-04-19T10:06:34;14.60;92.10
18717;DHT22;9487;50.892;6.906;2023-04-19T10:09:02;14.50;91.30
18717;DHT22;9487;50.892;6.906;2023-04-19T10:11:33;14.40;91.70
18717;DHT22;9487;50.892;6.906;2023-04-19T10:14:04;14.50;92.20
18717;DHT22;9487;50.892;6.906;2023-04-19T10:16:32;14.50;91.50
18717;DHT22;9487;50.892;6.906;2023-04-19T10:19:00;14.50;91.20
18717;DHT22;9487;50.892;6.906;2023-04-19T10:21:28;14.30;91.30
18717;DHT22;9487;50.892;6.906;2023-04-19T10:23:56;14.50;91.20
18717;DHT22;9487;50.892;6.906;2023-04-19T10:26:22;14.80;91.20
18717;DHT22;9487;50.892;6.906;2023-04-19T10:28:53;15.20;91.10
18717;DHT22;9487;50.892;6.906;2023-04-19T10:31:20;15.30;90.60
18717;DHT22;9487;50.892;6.906;2023-04-19T10:33:48;15.20;90.00
18717;DHT22;9487;50.892;6.906;2023-04-19T10:36:16;15.20;90.00
18717;DHT22;9487;50.892;6.906;2023-04-19T10:38:44;15.20;88.60
18717;DHT22;9487;50.892;6.906;2023-04-19T10:41:12;15.00;88.50
18717;DHT22;9487;50.892;6.906;2023-04-19T10:43:42;14.90;86.70
18717;DHT22;9487;50.892;6.906;2023-04-19T10:46:15;15.00;86.00
18717;DHT22;9487;50.892;6.906;2023-04-19T10:48:52;15.10;85.80
18717;DHT22;9487;50.892;6.906;2023-04-19T10:51:21;15.20;86.30
18717;DHT22;9487;50.892;6.906;2023-04-19T10:53:50;15.50;88.80
18717;DHT22;9487;50.892;6.906;2023-04-19T10:56:19;15.80;86.00
18717;DHT22;9487;50.892;6.906;2023-04-19T10:59:11;15.70;85.00
18717;DHT22;9487;50.892;6.906;2023-04-19T11:01:51;15.90;85.30
18717;DHT22;9487;50.892;6.906;2023-04-19T11:04:19;15.80;83.90
18717;DHT22;9487;50.892;6.906;2023-04-19T11:07:01;15.40;83.60
18717;DHT22;9487;50.892;6.906;2023-04-19T11:09:30;15.50;84.00
18717;DHT22;9487;50.892;6.906;2023-04-19T11:12:00;15.40;82.50
18717;DHT22;9487;50.892;6.906;2023-04-19T11:14:29;15.60;83.20
18717;DHT22;9487;50.892;6.906;2023-04-19T11:16:59;15.60;80.30
18717;DHT22;9487;50.892;6.906;2023-04-19T11:19:25;15.60;78.50
18717;DHT22;9487;50.892;6.906;2023-04-19T11:21:57;15.50;77.60
18717;DHT22;9487;50.892;6.906;2023-04-19T11:24:24;15.30;75.80
18717;DHT22;9487;50.892;6.906;2023-04-19T11:26:51;15.60;77.80
18717;DHT22;9487;50.892;6.906;2023-04-19T11:29:19;15.80;77.50
18717;DHT22;9487;50.892;6.906;2023-04-19T11:31:47;15.80;73.90
18717;DHT22;9487;50.892;6.906;2023-04-19T11:34:15;15.70;73.60
18717;DHT22;9487;50.892;6.906;2023-04-19T11:36:49;15.80;73.80
18717;DHT22;9487;50.892;6.906;2023-04-19T11:39:16;15.50;72.70
18717;DHT22;9487;50.892;6.906;2023-04-19T11:41:43;15.60;72.40
18717;DHT22;9487;50.892;6.906;2023-04-19T11:44:15;15.60;72.50
18717;DHT22;9487;50.892;6.906;2023-04-19T11:46:59;15.60;71.50
18717;DHT22;9487;50.892;6.906;2023-04-19T11:49:29;15.40;70.10
18717;DHT22;9487;50.892;6.906;2023-04-19T11:51:57;15.30;71.00
18717;DHT22;9487;50.892;6.906;2023-04-19T11:54:24;15.50;72.00
18717;DHT22;9487;50.892;6.906;2023-04-19T11:56:58;15.50;71.50
18717;DHT22;9487;50.892;6.906;2023-04-19T11:59:26;15.90;71.00
18717;DHT22;9487;50.892;6.906;2023-04-19T12:01:53;16.00;66.50
18717;DHT22;9487;50.892;6.906;2023-04-19T12:04:20;16.00;66.80
18717;DHT22;9487;50.892;6.906;2023-04-19T12:06:57;15.90;65.70
18717;DHT22;9487;50.892;6.906;2023-04-19T12:09:24;15.60;63.70
18717;DHT22;9487;50.892;6.906;2023-04-19T12:11:51;15.40;63.40
18717;DHT22;9487;50.892;6.906;2023-04-19T12:14:19;15.30;63.20
18717;DHT22;9487;50.892;6.906;2023-04-19T12:17:05;15.30;63.80
18717;DHT22;9487;50.892;6.906;2023-04-19T12:19:34;15.60;64.30
18717;DHT22;9487;50.892;6.906;2023-04-19T12:22:11;15.90;63.90
18717;DHT22;9487;50.892;6.906;2023-04-19T12:24:38;16.00;62.90
18717;DHT22;9487;50.892;6.906;2023-04-19T12:27:06;16.00;62.20
18717;DHT22;9487;50.892;6.906;2023-04-19T12:29:33;15.60;59.60
18717;DHT22;9487;50.892;6.906;2023-04-19T12:32:00;15.60;60.90
18717;DHT22;9487;50.892;6.906;2023-04-19T12:34:28;15.70;58.80
18717;DHT22;9487;50.892;6.906;2023-04-19T12:36:55;15.40;58.40
18717;DHT22;9487;50.892;6.906;2023-04-19T12:39:23;15.60;58.30
18717;DHT22;9487;50.892;6.906;2023-04-19T12:41:50;15.60;57.40
18717;DHT22;9487;50.892;6.906;2023-04-19T12:44:17;15.70;57.00
18717;DHT22;9487;50.892;6.906;2023-04-19T12:46:44;15.40;54.60
18717;DHT22;9487;50.892;6.906;2023-04-19T12:49:10;15.20;54.90
18717;DHT22;9487;50.892;6.906;2023-04-19T12:51:37;15.30;55.60
18717;DHT22;9487;50.892;6.906;2023-04-19T12:54:04;15.20;55.80
18717;DHT22;9487;50.892;6.906;2023-04-19T12:56:33;15.10;55.50
18717;DHT22;9487;50.892;6.906;2023-04-19T12:59:00;15.10;55.20
18717;DHT22;9487;50.892;6.906;2023-04-19T13:01:27;15.20;56.00
18717;DHT22;9487;50.892;6.906;2023-04-19T13:03:53;15.50;55.90
18717;DHT22;9487;50.892;6.906;2023-04-19T13:06:20;15.10;53.90
18717;DHT22;9487;50.892;6.906;2023-04-19T13:08:47;15.00;53.60
18717;DHT22;9487;50.892;6.906;2023-04-19T13:11:14;15.20;54.40
18717;DHT22;9487;50.892;6.906;2023-04-19T13:13:43;15.40;54.40
18717;DHT22;9487;50.892;6.906;2023-04-19T13:16:10;15.50;54.40
18717;DHT22;9487;50.892;6.906;2023-04-19T13:18:36;15.50;52.50
18717;DHT22;9487;50.892;6.906;2023-04-19T13:21:03;15.20;52.20
18717;DHT22;9487;50.892;6.906;2023-04-19T13:23:30;15.20;51.30
18717;DHT22;9487;50.892;6.906;2023-04-19T13:25:57;15.30;51.30
18717;DHT22;9487;50.892;6.906;2023-04-19T13:28:24;15.40;51.30
18717;DHT22;9487;50.892;6.906;2023-04-19T13:30:52;15.70;51.00
18717;DHT22;9487;50.892;6.906;2023-04-19T13:33:19;15.70;50.30
18717;DHT22;9487;50.892;6.906;2023-04-19T13:35:46;15.70;49.40
18717;DHT22;9487;50.892;6.906;2023-04-19T13:38:13;15.40;48.70
18717;DHT22;9487;50.892;6.906;2023-04-19T13:40:39;15.50;49.20
18717;DHT22;9487;50.892;6.906;2023-04-19T13:43:06;15.70;49.10
18717;DHT22;9487;50.892;6.906;2023-04-19T13:45:33;16.00;48.90
18717;DHT22;9487;50.892;6.906;2023-04-19T13:48:01;16.20;48.60
18717;DHT22;9487;50.892;6.906;2023-04-19T13:50:28;15.90;47.20
18717;DHT22;9487;50.892;6.906;2023-04-19T13:52:55;15.70;47.10
18717;DHT22;9487;50.892;6.906;2023-04-19T13:55:22;15.70;46.60
18717;DHT22;9487;50.892;6.906;2023-04-19T13:57:49;16.00;46.40
18717;DHT22;9487;50.892;6.906;2023-04-19T14:00:16;15.90;45.20
18717;DHT22;9487;50.892;6.906;2023-04-19T14:02:43;15.80;44.50
18717;DHT22;9487;50.892;6.906;2023-04-19T14:05:12;15.80;44.10
18717;DHT22;9487;50.892;6.906;2023-04-19T14:07:39;16.00;44.90
18717;DHT22;9487;50.892;6.906;2023-04-19T14:10:07;16.20;45.20
18717;DHT22;9487;50.892;6.906;2023-04-19T14:12:34;16.00;44.60
18717;DHT22;9487;50.892;6.906;2023-04-19T14:15:01;16.20;44.70
18717;DHT22;9487;50.892;6.906;2023-04-19T14:17:27;15.80;44.40
18717;DHT22;9487;50.892;6.906;2023-04-19T14:19:54;16.00;44.50
18717;DHT22;9487;50.892;6.906;2023-04-19T14:22:23;16.10;44.70
18717;DHT22;9487;50.892;6.906;2023-04-19T14:24:49;16.20;45.00
18717;DHT22;9487;50.892;6.906;2023-04-19T14:27:16;16.00;45.30
18717;DHT22;9487;50.892;6.906;2023-04-19T14:29:43;16.00;45.10
18717;DHT22;9487;50.892;6.906;2023-04-19T14:32:10;16.10;45.40
18717;DHT22;9487;50.892;6.906;2023-04-19T14:34:37;16.10;45.30
18717;DHT22;9487;50.892;6.906;2023-04-19T14:37:03;15.80;44.30
18717;DHT22;9487;50.892;6.906;2023-04-19T14:39:32;15.70;44.40
18717;DHT22;9487;50.892;6.906;2023-04-19T14:41:58;15.70;43.90
18717;DHT22;9487;50.892;6.906;2023-04-19T14:44:25;15.90;44.20
18717;DHT22;9487;50.892;6.906;2023-04-19T14:46:52;15.80;43.50
18717;DHT22;9487;50.892;6.906;2023-04-19T14:49:19;15.40;43.30
18717;DHT22;9487;50.892;6.906;2023-04-19T14:51:45;15.60;43.70
18717;DHT22;9487;50.892;6.906;2023-04-19T14:54:12;15.50;42.90
18717;DHT22;9487;50.892;6.906;2023-04-19T14:56:40;15.70;43.30
18717;DHT22;9487;50.892;6.906;2023-04-19T14:59:07;15.70;41.80
18717;DHT22;9487;50.892;6.906;2023-04-19T15:01:34;15.70;42.20
18717;DHT22;9487;50.892;6.906;2023-04-19T15:04:00;15.90;41.60
18717;DHT22;9487;50.892;6.906;2023-04-19T15:06:27;16.00;41.20
18717;DHT22;9487;50.892;6.906;2023-04-19T15:08:55;16.00;40.60
18717;DHT22;9487;50.892;6.906;2023-04-19T15:11:21;15.80;40.80
18717;DHT22;9487;50.892;6.906;2023-04-19T15:13:50;15.60;40.50
18717;DHT22;9487;50.892;6.906;2023-04-19T15:16:17;15.70;41.50
18717;DHT22;9487;50.892;6.906;2023-04-19T15:18:43;15.60;41.40
18717;DHT22;9487;50.892;6.906;2023-04-19T15:21:10;15.80;42.50
18717;DHT22;9487;50.892;6.906;2023-04-19T15:23:37;15.80;42.40
18717;DHT22;9487;50.892;6.906;2023-04-19T15:26:04;15.80;42.00
18717;DHT22;9487;50.892;6.906;2023-04-19T15:28:32;15.70;41.70
18717;DHT22;9487;50.892;6.906;2023-04-19T15:31:03;15.60;41.60
18717;DHT22;9487;50.892;6.906;2023-04-19T15:33:31;15.40;41.60
18717;DHT22;9487;50.892;6.906;2023-04-19T15:35:58;15.70;42.00
18717;DHT22;9487;50.892;6.906;2023-04-19T15:38:26;15.60;41.20
18717;DHT22;9487;50.892;6.906;2023-04-19T15:40:54;15.90;41.90
18717;DHT22;9487;50.892;6.906;2023-04-19T15:43:21;16.20;42.50
18717;DHT22;9487;50.892;6.906;2023-04-19T15:45:48;16.30;47.60
18717;DHT22;9487;50.892;6.906;2023-04-19T15:48:16;16.60;49.10